Time;durP1;ratioP1;P1;durP2;ratioP2;P2;SDS_P1;SDS_P2;PMS_P1;PMS_P2;Temp;Humidity;BMP_temperature;BMP_pressure;BME280_temperature;BME280_humidity;BME280_pressure;Samples;Min_cycle;Max_cycle;Signal;HPM_P1;HPM_P2
2021/10/23 00:00:19;;;;;;;3.53;1.97;;;;;;;;;;5162868;27;20477;-81
2021/10/23 00:02:46;;;;;;;4.13;1.43;;;;;;;;;;5158855;27;20453;-81
2021/10/23 00:05:14;;;;;;;4.63;2.17;;;;;;;;;;5164014;27;20509;-82
2021/10/23 00:07:42;;;;;;;30.93;3.03;;;;;;;;;;5162635;27;20479;-80
2021/10/23 00:10:10;;;;;;;13.70;1.50;;;;;;;;;;5167049;27;20473;-81
2021/10/23 00:12:38;;;;;;;1.87;0.80;;;;;;;;;;5161135;27;20473;-80
2021/10/23 00:15:08;;;;;;;11.10;2.50;;;;;;;;;;5160470;27;20456;-81
2021/10/23 00:17:35;;;;;;;4.53;1.50;;;;;;;;;;5147068;27;20864;-81
2021/10/23 00:20:03;;;;;;;3.97;1.47;;;;;;;;;;5147238;27;20548;-81
2021/10/23 00:22:31;;;;;;;5.10;1.40;;;;;;;;;;5147636;27;20459;-81
2021/10/23 00:25:00;;;;;;;3.83;2.13;;;;;;;;;;5147201;27;20532;-83
2021/10/23 00:27:28;;;;;;;4.97;1.43;;;;;;;;;;5145078;27;20489;-81
2021/10/23 00:29:55;;;;;;;4.20;1.10;;;;;;;;;;5147034;27;20479;-81
2021/10/23 00:32:25;;;;;;;3.83;1.20;;;;;;;;;;5145452;27;20446;-81
2021/10/23 00:34:52;;;;;;;5.30;1.30;;;;;;;;;;5146876;27;20506;-81
2021/10/23 00:37:21;;;;;;;4.77;1.80;;;;;;;;;;5146222;27;20556;-81
2021/10/23 00:39:48;;;;;;;3.53;1.13;;;;;;;;;;5147160;27;20480;-81
2021/10/23 00:42:16;;;;;;;5.53;1.20;;;;;;;;;;5147691;27;20528;-81
2021/10/23 00:44:45;;;;;;;7.00;2.00;;;;;;;;;;5146180;27;20485;-80
2021/10/23 00:47:14;;;;;;;2.57;0.90;;;;;;;;;;5147559;27;20482;-82
2021/10/23 00:49:43;;;;;;;7.63;1.60;;;;;;;;;;5146019;27;20446;-81
2021/10/23 00:52:11;;;;;;;10.33;1.40;;;;;;;;;;5147493;27;20537;-82
2021/10/23 00:54:39;;;;;;;7.90;1.60;;;;;;;;;;5146756;27;20469;-81
2021/10/23 00:57:07;;;;;;;6.27;0.90;;;;;;;;;;5146354;27;20446;-81
2021/10/23 00:59:35;;;;;;;7.10;1.23;;;;;;;;;;5145661;27;20533;-81
2021/10/23 01:02:03;;;;;;;7.30;1.30;;;;;;;;;;5146134;27;20509;-81
2021/10/23 01:04:33;;;;;;;3.70;1.00;;;;;;;;;;5145396;27;20507;-81
2021/10/23 01:07:02;;;;;;;4.90;1.33;;;;;;;;;;5145387;27;20488;-82
2021/10/23 01:09:30;;;;;;;6.80;1.50;;;;;;;;;;5144671;27;20462;-82
2021/10/23 01:11:58;;;;;;;2.80;1.03;;;;;;;;;;5146974;27;20442;-81
2021/10/23 01:14:26;;;;;;;4.50;1.40;;;;;;;;;;5145676;27;20497;-81
2021/10/23 01:16:55;;;;;;;6.77;1.57;;;;;;;;;;5146286;27;20496;-82
2021/10/23 01:19:23;;;;;;;4.80;1.90;;;;;;;;;;5145135;27;20557;-81
2021/10/23 01:21:53;;;;;;;5.20;1.33;;;;;;;;;;5145092;27;20450;-81
2021/10/23 01:24:21;;;;;;;9.50;1.33;;;;;;;;;;5145557;27;20526;-81
2021/10/23 01:26:49;;;;;;;14.43;2.10;;;;;;;;;;5145419;27;20604;-82
2021/10/23 01:29:17;;;;;;;5.67;1.30;;;;;;;;;;5145892;27;20492;-81
2021/10/23 01:31:45;;;;;;;8.23;1.80;;;;;;;;;;5145944;27;20469;-81
2021/10/23 01:34:13;;;;;;;5.80;1.47;;;;;;;;;;5145506;27;20878;-81
2021/10/23 01:36:45;;;;;;;4.80;1.43;;;;;;;;;;5146960;27;20470;-81
2021/10/23 01:39:15;;;;;;;14.40;1.43;;;;;;;;;;5145440;27;20549;-82
2021/10/23 01:41:43;;;;;;;5.10;1.20;;;;;;;;;;5144337;27;20529;-81
2021/10/23 01:44:12;;;;;;;6.10;1.50;;;;;;;;;;5146268;27;20517;-82
2021/10/23 01:46:40;;;;;;;10.13;1.33;;;;;;;;;;5143778;27;20515;-82
2021/10/23 01:49:08;;;;;;;5.37;1.37;;;;;;;;;;5144949;27;20477;-81
2021/10/23 01:51:38;;;;;;;4.53;1.10;;;;;;;;;;5143417;27;20450;-80
2021/10/23 01:54:06;;;;;;;3.40;0.70;;;;;;;;;;5142887;27;20446;-80
2021/10/23 01:56:37;;;;;;;4.23;1.20;;;;;;;;;;5143293;27;20824;-80
2021/10/23 01:59:05;;;;;;;4.30;1.70;;;;;;;;;;5141585;27;20453;-80
2021/10/23 02:01:33;;;;;;;4.37;1.43;;;;;;;;;;5141803;27;20864;-81
2021/10/23 02:04:02;;;;;;;11.53;2.07;;;;;;;;;;5140370;27;20466;-81
2021/10/23 02:06:30;;;;;;;7.30;2.60;;;;;;;;;;5139738;27;20568;-81
2021/10/23 02:08:57;;;;;;;7.53;1.00;;;;;;;;;;5144258;27;20497;-81
2021/10/23 02:11:25;;;;;;;4.57;1.60;;;;;;;;;;5141736;27;20733;-81
2021/10/23 02:13:54;;;;;;;1.50;0.83;;;;;;;;;;5141924;27;20740;-82
2021/10/23 02:16:22;;;;;;;12.40;1.23;;;;;;;;;;5144284;27;20540;-81
2021/10/23 02:18:49;;;;;;;8.93;1.43;;;;;;;;;;5142655;27;20460;-81
2021/10/23 02:21:17;;;;;;;3.83;1.17;;;;;;;;;;5143488;27;20521;-81
2021/10/23 02:23:45;;;;;;;6.83;1.90;;;;;;;;;;5143940;27;20553;-82
2021/10/23 02:26:13;;;;;;;6.53;2.00;;;;;;;;;;5143354;27;20450;-82
2021/10/23 02:28:41;;;;;;;3.93;0.80;;;;;;;;;;5143384;27;20803;-81
2021/10/23 02:31:10;;;;;;;15.70;2.00;;;;;;;;;;5143886;27;20446;-82
2021/10/23 02:33:37;;;;;;;5.90;1.63;;;;;;;;;;5146345;27;20942;-80
2021/10/23 02:36:06;;;;;;;10.40;1.80;;;;;;;;;;5145680;27;20532;-80
2021/10/23 02:38:33;;;;;;;9.43;1.13;;;;;;;;;;5141879;27;20490;-81
2021/10/23 02:41:01;;;;;;;2.23;0.87;;;;;;;;;;5144862;27;20540;-82
2021/10/23 02:43:29;;;;;;;7.90;1.93;;;;;;;;;;5144059;27;20461;-81
2021/10/23 02:45:57;;;;;;;5.43;1.93;;;;;;;;;;5142821;27;20460;-82
2021/10/23 02:48:26;;;;;;;5.30;1.87;;;;;;;;;;5143767;27;20497;-81
2021/10/23 02:50:54;;;;;;;1.90;0.83;;;;;;;;;;5143924;27;20883;-81
2021/10/23 02:53:21;;;;;;;5.50;2.00;;;;;;;;;;5142309;27;20737;-81
2021/10/23 02:55:49;;;;;;;3.63;1.83;;;;;;;;;;5143808;27;20493;-81
2021/10/23 02:58:17;;;;;;;6.03;0.87;;;;;;;;;;5143312;27;20489;-81
2021/10/23 03:00:44;;;;;;;8.23;1.20;;;;;;;;;;5143561;28;20449;-80
2021/10/23 03:03:12;;;;;;;2.13;1.13;;;;;;;;;;5143649;28;20544;-82
2021/10/23 03:05:41;;;;;;;5.80;1.30;;;;;;;;;;5142986;28;20857;-81
2021/10/23 03:08:09;;;;;;;7.13;1.53;;;;;;;;;;5143294;28;20921;-81
2021/10/23 03:10:37;;;;;;;14.07;2.97;;;;;;;;;;5144367;28;20442;-81
2021/10/23 03:13:05;;;;;;;8.00;1.30;;;;;;;;;;5143458;28;20485;-81
2021/10/23 03:15:32;;;;;;;6.40;1.40;;;;;;;;;;5143970;28;20476;-80
2021/10/23 03:18:00;;;;;;;4.73;1.43;;;;;;;;;;5143153;28;20446;-81
2021/10/23 03:20:28;;;;;;;6.43;1.30;;;;;;;;;;5143250;28;20933;-82
2021/10/23 03:22:57;;;;;;;14.83;2.00;;;;;;;;;;5143288;28;20947;-81
2021/10/23 03:25:25;;;;;;;3.13;2.03;;;;;;;;;;5142739;28;20937;-81
2021/10/23 03:27:53;;;;;;;4.57;1.10;;;;;;;;;;5143471;28;20832;-81
2021/10/23 03:30:20;;;;;;;13.07;3.20;;;;;;;;;;5142530;28;20912;-82
2021/10/23 03:32:48;;;;;;;13.37;2.00;;;;;;;;;;5142623;28;20461;-82
2021/10/23 03:35:16;;;;;;;4.37;1.00;;;;;;;;;;5143144;28;20537;-81
2021/10/23 03:37:43;;;;;;;4.00;1.30;;;;;;;;;;5142667;28;20442;-81
2021/10/23 03:40:13;;;;;;;8.50;1.30;;;;;;;;;;5143401;28;20534;-81
2021/10/23 03:42:40;;;;;;;8.60;1.23;;;;;;;;;;5142812;28;20924;-81
2021/10/23 03:45:08;;;;;;;3.63;1.00;;;;;;;;;;5142609;28;20537;-80
2021/10/23 03:47:36;;;;;;;6.80;1.73;;;;;;;;;;5144589;28;20521;-80
2021/10/23 03:50:04;;;;;;;7.53;1.17;;;;;;;;;;5143335;28;20490;-81
2021/10/23 03:52:34;;;;;;;3.00;1.33;;;;;;;;;;5143723;28;20752;-82
2021/10/23 03:55:01;;;;;;;8.50;1.33;;;;;;;;;;5142433;28;20745;-82
2021/10/23 03:57:30;;;;;;;10.43;2.20;;;;;;;;;;5142852;28;20454;-81
2021/10/23 03:59:58;;;;;;;7.53;1.90;;;;;;;;;;5143169;28;20743;-81
2021/10/23 04:02:26;;;;;;;4.50;1.47;;;;;;;;;;5142740;28;20452;-81
2021/10/23 04:04:53;;;;;;;8.77;1.80;;;;;;;;;;5143007;28;20789;-81
2021/10/23 04:07:21;;;;;;;9.83;2.07;;;;;;;;;;5141854;28;20524;-81
2021/10/23 04:09:48;;;;;;;9.73;1.43;;;;;;;;;;5145959;27;20883;-81
2021/10/23 04:12:16;;;;;;;4.17;1.33;;;;;;;;;;5145515;27;20452;-81
2021/10/23 04:14:45;;;;;;;4.13;1.47;;;;;;;;;;5146696;27;20452;-82
2021/10/23 04:17:13;;;;;;;4.90;1.20;;;;;;;;;;5146633;27;20505;-81
2021/10/23 04:19:40;;;;;;;13.67;1.53;;;;;;;;;;5146541;27;20464;-81
2021/10/23 04:22:09;;;;;;;10.47;1.77;;;;;;;;;;5144950;27;20485;-81
2021/10/23 04:24:37;;;;;;;6.37;1.77;;;;;;;;;;5147125;27;20477;-81
2021/10/23 04:27:05;;;;;;;1.87;1.00;;;;;;;;;;5145953;27;21009;-82
2021/10/23 04:29:33;;;;;;;4.83;1.93;;;;;;;;;;5145923;27;20446;-80
2021/10/23 04:32:02;;;;;;;10.80;1.73;;;;;;;;;;5145667;27;20525;-81
2021/10/23 04:34:31;;;;;;;7.17;1.90;;;;;;;;;;5146228;27;20484;-80
2021/10/23 04:36:59;;;;;;;4.23;1.57;;;;;;;;;;5145541;27;20456;-81
2021/10/23 04:39:26;;;;;;;2.63;0.80;;;;;;;;;;5146677;27;20510;-81
2021/10/23 04:41:55;;;;;;;4.80;1.43;;;;;;;;;;5145824;27;20449;-80
2021/10/23 04:44:24;;;;;;;11.37;3.00;;;;;;;;;;5146376;27;20455;-81
2021/10/23 04:46:52;;;;;;;4.23;1.20;;;;;;;;;;5146843;27;20442;-80
2021/10/23 04:49:21;;;;;;;6.20;1.17;;;;;;;;;;5144925;27;21018;-81
2021/10/23 04:51:48;;;;;;;7.07;2.07;;;;;;;;;;5146719;27;20453;-81
2021/10/23 04:54:16;;;;;;;4.33;1.33;;;;;;;;;;5145091;27;20514;-81
2021/10/23 04:56:44;;;;;;;5.83;1.03;;;;;;;;;;5146200;27;20729;-81
2021/10/23 04:59:12;;;;;;;3.50;1.53;;;;;;;;;;5144841;27;20442;-81
2021/10/23 05:01:40;;;;;;;5.60;2.30;;;;;;;;;;5145853;27;20518;-82
2021/10/23 05:04:07;;;;;;;7.43;1.90;;;;;;;;;;5143781;27;20873;-81
2021/10/23 05:06:37;;;;;;;5.23;1.40;;;;;;;;;;5147152;27;20958;-81
2021/10/23 05:09:04;;;;;;;10.73;1.37;;;;;;;;;;5144049;27;20488;-80
2021/10/23 05:11:32;;;;;;;5.80;2.90;;;;;;;;;;5146878;27;20461;-79
2021/10/23 05:14:00;;;;;;;13.50;2.10;;;;;;;;;;5149079;27;20556;-80
2021/10/23 05:16:28;;;;;;;4.70;1.83;;;;;;;;;;5148988;27;20533;-80
2021/10/23 05:18:55;;;;;;;4.80;1.20;;;;;;;;;;5148819;27;20540;-80
2021/10/23 05:21:23;;;;;;;5.47;1.43;;;;;;;;;;5143835;27;20846;-81
2021/10/23 05:23:54;;;;;;;2.43;1.20;;;;;;;;;;5145125;27;20446;-82
2021/10/23 05:26:21;;;;;;;10.43;1.87;;;;;;;;;;5145545;27;20450;-82
2021/10/23 05:28:49;;;;;;;3.63;1.20;;;;;;;;;;5144017;27;20496;-82
2021/10/23 05:31:17;;;;;;;5.23;1.40;;;;;;;;;;5145186;27;20528;-81
2021/10/23 05:33:45;;;;;;;6.40;2.00;;;;;;;;;;5145300;27;20556;-81
2021/10/23 05:36:12;;;;;;;9.93;1.83;;;;;;;;;;5144851;27;20505;-81
2021/10/23 05:38:40;;;;;;;4.13;1.27;;;;;;;;;;5144692;27;20732;-82
2021/10/23 05:41:09;;;;;;;12.70;1.80;;;;;;;;;;5143803;27;20815;-81
2021/10/23 05:43:37;;;;;;;12.50;1.50;;;;;;;;;;5145534;27;20483;-81
2021/10/23 05:46:04;;;;;;;6.27;2.13;;;;;;;;;;5145415;27;20513;-81
2021/10/23 05:48:32;;;;;;;9.07;1.97;;;;;;;;;;5144616;27;20488;-81
2021/10/23 05:51:02;;;;;;;4.60;1.27;;;;;;;;;;5145001;27;20470;-81
2021/10/23 05:53:30;;;;;;;5.47;1.53;;;;;;;;;;5143953;27;20477;-81
2021/10/23 05:55:57;;;;;;;10.40;2.20;;;;;;;;;;5144024;27;20533;-80
2021/10/23 05:58:29;;;;;;;5.60;1.37;;;;;;;;;;5144867;27;20517;-81
2021/10/23 06:01:03;;;;;;;4.53;1.93;;;;;;;;;;5142463;27;20930;-81
2021/10/23 06:03:32;;;;;;;8.03;2.17;;;;;;;;;;5143146;27;20556;-80
2021/10/23 06:06:00;;;;;;;4.80;2.00;;;;;;;;;;5144666;27;20448;-81
2021/10/23 06:08:28;;;;;;;2.73;1.67;;;;;;;;;;5144613;27;20499;-81
2021/10/23 06:10:56;;;;;;;8.63;1.70;;;;;;;;;;5144048;27;20537;-81
2021/10/23 06:13:24;;;;;;;4.67;1.90;;;;;;;;;;5142747;27;20458;-81
2021/10/23 06:15:53;;;;;;;4.70;1.70;;;;;;;;;;5142811;27;20464;-80
2021/10/23 06:18:21;;;;;;;6.10;1.50;;;;;;;;;;5143167;27;20839;-81
2021/10/23 06:20:50;;;;;;;5.03;1.90;;;;;;;;;;5145359;27;20481;-81
2021/10/23 06:23:17;;;;;;;4.50;1.73;;;;;;;;;;5145022;27;20501;-81
2021/10/23 06:25:45;;;;;;;7.90;2.40;;;;;;;;;;5143952;27;20442;-81
2021/10/23 06:28:13;;;;;;;4.13;1.70;;;;;;;;;;5142711;27;20517;-81
2021/10/23 06:30:40;;;;;;;5.97;1.47;;;;;;;;;;5143988;27;20450;-80
2021/10/23 06:33:09;;;;;;;7.10;2.30;;;;;;;;;;5141275;27;20819;-81
2021/10/23 06:35:37;;;;;;;2.40;1.57;;;;;;;;;;5143248;27;20505;-81
2021/10/23 06:38:05;;;;;;;4.40;1.90;;;;;;;;;;5143305;27;20813;-81
2021/10/23 06:40:33;;;;;;;4.50;2.07;;;;;;;;;;5144852;27;20536;-81
2021/10/23 06:43:01;;;;;;;4.60;1.40;;;;;;;;;;5145909;27;20456;-81
2021/10/23 06:45:28;;;;;;;4.60;1.80;;;;;;;;;;5142956;27;20532;-82
2021/10/23 06:47:56;;;;;;;2.13;1.37;;;;;;;;;;5138176;27;20521;-77
2021/10/23 06:50:25;;;;;;;13.53;3.00;;;;;;;;;;5140733;27;20433;-80
2021/10/23 06:52:53;;;;;;;6.57;2.73;;;;;;;;;;5148748;27;20719;-79
2021/10/23 06:55:21;;;;;;;10.97;3.03;;;;;;;;;;5148756;27;20481;-80
2021/10/23 06:57:48;;;;;;;12.27;1.93;;;;;;;;;;5146224;27;20510;-79
2021/10/23 07:00:16;;;;;;;5.57;2.10;;;;;;;;;;5145893;27;20442;-81
2021/10/23 07:02:45;;;;;;;6.30;1.90;;;;;;;;;;5143732;28;20518;-81
2021/10/23 07:05:13;;;;;;;6.57;1.97;;;;;;;;;;5145924;28;20523;-81
2021/10/23 07:07:44;;;;;;;6.80;1.30;;;;;;;;;;5146612;28;20541;-80
2021/10/23 07:10:13;;;;;;;4.60;1.87;;;;;;;;;;5147428;28;20525;-80
2021/10/23 07:12:41;;;;;;;3.13;1.80;;;;;;;;;;5144919;28;20453;-82
2021/10/23 07:15:09;;;;;;;13.03;3.20;;;;;;;;;;5144841;28;21059;-81
2021/10/23 07:17:36;;;;;;;8.50;2.93;;;;;;;;;;5146000;28;20860;-79
2021/10/23 07:20:04;;;;;;;12.90;4.00;;;;;;;;;;5147745;28;20479;-81
2021/10/23 07:22:35;;;;;;;9.50;1.83;;;;;;;;;;5147999;28;20474;-79
2021/10/23 07:25:04;;;;;;;5.80;3.00;;;;;;;;;;5147387;28;20492;-80
2021/10/23 07:27:32;;;;;;;5.63;1.60;;;;;;;;;;5144767;28;20469;-81
2021/10/23 07:30:06;;;;;;;7.00;2.10;;;;;;;;;;5144521;28;20481;-80
2021/10/23 07:32:34;;;;;;;10.27;2.20;;;;;;;;;;5146911;28;20449;-80
2021/10/23 07:35:02;;;;;;;4.53;2.30;;;;;;;;;;5145755;28;20523;-80
2021/10/23 07:37:32;;;;;;;3.57;1.90;;;;;;;;;;5144305;28;20530;-79
2021/10/23 07:40:00;;;;;;;6.53;1.83;;;;;;;;;;5147710;28;20541;-80
2021/10/23 07:42:29;;;;;;;5.20;1.90;;;;;;;;;;5146959;27;20461;-80
2021/10/23 07:44:58;;;;;;;8.20;1.43;;;;;;;;;;5149213;27;20449;-80
2021/10/23 07:47:26;;;;;;;5.13;2.60;;;;;;;;;;5149208;27;20544;-80
2021/10/23 07:49:53;;;;;;;11.43;2.40;;;;;;;;;;5144091;27;20597;-79
2021/10/23 07:52:21;;;;;;;7.47;2.20;;;;;;;;;;5148862;27;20469;-79
2021/10/23 07:54:49;;;;;;;5.23;1.80;;;;;;;;;;5151627;27;20473;-80
2021/10/23 07:57:17;;;;;;;5.27;1.90;;;;;;;;;;5149284;27;20453;-79
2021/10/23 07:59:47;;;;;;;8.67;2.50;;;;;;;;;;5152398;27;20442;-80
2021/10/23 08:02:16;;;;;;;9.10;2.50;;;;;;;;;;5151584;27;20430;-80
2021/10/23 08:04:43;;;;;;;6.87;1.70;;;;;;;;;;5147487;27;20544;-80
2021/10/23 08:07:11;;;;;;;9.83;2.90;;;;;;;;;;5149149;27;20493;-80
2021/10/23 08:09:42;;;;;;;7.63;2.37;;;;;;;;;;5143794;27;20480;-80
2021/10/23 08:12:10;;;;;;;6.03;1.87;;;;;;;;;;5133817;27;20443;-79
2021/10/23 08:14:38;;;;;;;6.30;2.53;;;;;;;;;;5132094;27;20446;-81
2021/10/23 08:17:08;;;;;;;7.37;2.57;;;;;;;;;;5151078;27;20449;-79
2021/10/23 08:19:36;;;;;;;10.37;2.20;;;;;;;;;;5150301;27;20442;-79
2021/10/23 08:22:04;;;;;;;5.67;2.10;;;;;;;;;;5145083;27;20448;-79
2021/10/23 08:24:32;;;;;;;2.97;1.60;;;;;;;;;;5139174;27;20503;-80
2021/10/23 08:27:00;;;;;;;9.73;1.77;;;;;;;;;;5130674;27;20456;-79
2021/10/23 08:29:27;;;;;;;5.23;2.03;;;;;;;;;;5132587;27;20521;-78
2021/10/23 08:31:56;;;;;;;3.90;1.80;;;;;;;;;;5146056;27;20515;-79
2021/10/23 08:34:26;;;;;;;4.77;2.43;;;;;;;;;;5138003;27;20514;-77
2021/10/23 08:36:54;;;;;;;5.43;1.90;;;;;;;;;;5139291;27;20526;-80
2021/10/23 08:39:25;;;;;;;3.60;1.80;;;;;;;;;;5144927;27;20442;-79
2021/10/23 08:41:53;;;;;;;2.50;1.37;;;;;;;;;;5144252;27;20448;-81
2021/10/23 08:44:22;;;;;;;5.47;2.27;;;;;;;;;;5140801;27;20458;-79
2021/10/23 08:46:51;;;;;;;4.93;2.20;;;;;;;;;;5144714;27;20452;-80
2021/10/23 08:49:19;;;;;;;8.47;3.43;;;;;;;;;;5141229;27;20492;-78
2021/10/23 08:51:49;;;;;;;6.33;3.67;;;;;;;;;;5145451;27;20880;-79
2021/10/23 08:54:17;;;;;;;9.33;2.97;;;;;;;;;;5145177;27;20459;-79
2021/10/23 08:56:48;;;;;;;6.43;2.70;;;;;;;;;;5144922;27;20477;-79
2021/10/23 08:59:18;;;;;;;5.40;2.10;;;;;;;;;;5143042;27;20462;-80
2021/10/23 09:01:46;;;;;;;3.40;2.10;;;;;;;;;;5126583;28;20439;-79
2021/10/23 09:04:14;;;;;;;3.63;1.40;;;;;;;;;;5129511;27;20478;-79
2021/10/23 09:06:42;;;;;;;3.33;1.57;;;;;;;;;;5145940;27;20553;-80
2021/10/23 09:09:17;;;;;;;7.70;2.77;;;;;;;;;;5148467;27;20470;-80
2021/10/23 09:11:46;;;;;;;8.40;1.43;;;;;;;;;;5147639;27;20468;-78
2021/10/23 09:14:24;;;;;;;6.60;2.30;;;;;;;;;;5146610;27;20852;-78
2021/10/23 09:17:10;;;;;;;6.83;2.53;;;;;;;;;;5124899;28;20515;-78
2021/10/23 09:19:41;;;;;;;6.43;2.00;;;;;;;;;;5131499;27;20454;-78
2021/10/23 09:22:26;;;;;;;3.43;2.30;;;;;;;;;;5147847;27;20814;-79
2021/10/23 09:25:10;;;;;;;2.70;1.73;;;;;;;;;;5145822;27;20461;-78
2021/10/23 09:27:47;;;;;;;9.47;2.37;;;;;;;;;;5140034;27;20465;-78
2021/10/23 09:30:16;;;;;;;2.90;1.60;;;;;;;;;;5154161;27;20473;-79
2021/10/23 09:32:54;;;;;;;3.30;1.20;;;;;;;;;;5166867;27;20480;-79
2021/10/23 09:35:28;;;;;;;4.90;2.30;;;;;;;;;;5134629;27;20494;-80
2021/10/23 09:37:57;;;;;;;7.73;2.50;;;;;;;;;;5151547;27;20444;-82
2021/10/23 09:40:27;;;;;;;6.73;2.23;;;;;;;;;;5141563;27;20541;-81
2021/10/23 09:43:12;;;;;;;2.77;1.57;;;;;;;;;;5153618;27;20480;-81
2021/10/23 09:45:57;;;;;;;2.93;1.50;;;;;;;;;;5153862;27;20492;-81
2021/10/23 09:48:29;;;;;;;5.97;1.73;;;;;;;;;;5146935;27;20446;-81
2021/10/23 09:51:07;;;;;;;5.20;2.57;;;;;;;;;;5148123;27;20457;-80
2021/10/23 09:53:36;;;;;;;6.97;1.30;;;;;;;;;;5148898;27;20462;-80
2021/10/23 09:56:08;;;;;;;4.27;2.27;;;;;;;;;;5149543;27;20971;-80
2021/10/23 09:58:36;;;;;;;2.33;1.40;;;;;;;;;;5161085;27;20501;-79
2021/10/23 10:01:07;;;;;;;6.33;1.90;;;;;;;;;;5149548;27;20498;-78
2021/10/23 10:03:35;;;;;;;4.20;1.93;;;;;;;;;;5143668;27;20438;-80
2021/10/23 10:06:03;;;;;;;12.43;3.87;;;;;;;;;;5143126;27;20461;-78
2021/10/23 10:08:31;;;;;;;6.33;2.30;;;;;;;;;;5145162;27;20929;-81
2021/10/23 10:11:00;;;;;;;3.73;2.27;;;;;;;;;;5160339;27;20832;-80
2021/10/23 10:13:32;;;;;;;9.63;2.70;;;;;;;;;;5142504;27;20868;-82
2021/10/23 10:16:04;;;;;;;6.67;3.27;;;;;;;;;;5144685;27;20448;-80
2021/10/23 10:18:32;;;;;;;4.97;2.50;;;;;;;;;;5143118;27;20485;-80
2021/10/23 10:21:01;;;;;;;3.70;2.53;;;;;;;;;;5134424;27;20512;-80
2021/10/23 10:23:33;;;;;;;9.13;3.13;;;;;;;;;;5138141;27;20448;-81
2021/10/23 10:26:19;;;;;;;4.90;1.80;;;;;;;;;;5129048;27;20442;-79
2021/10/23 10:29:02;;;;;;;3.20;1.60;;;;;;;;;;5139056;27;20834;-80
2021/10/23 10:31:50;;;;;;;5.43;1.83;;;;;;;;;;5125401;28;20453;-78
2021/10/23 10:34:34;;;;;;;6.90;2.67;;;;;;;;;;5126069;28;20515;-80
2021/10/23 10:37:40;;;;;;;9.57;3.17;;;;;;;;;;5138357;27;20453;-80
2021/10/23 10:40:31;;;;;;;8.70;2.73;;;;;;;;;;5159039;27;20442;-80
2021/10/23 10:42:58;;;;;;;9.37;3.20;;;;;;;;;;5138156;27;20446;-80
2021/10/23 10:45:27;;;;;;;11.97;2.50;;;;;;;;;;5145919;27;20756;-79
2021/10/23 10:50:51;;;;;;;6.70;3.90;;;;;;;;;;5132463;27;20643;-72
2021/10/23 10:53:21;;;;;;;9.03;2.60;;;;;;;;;;5130504;27;20897;-72
2021/10/23 10:55:50;;;;;;;7.33;3.23;;;;;;;;;;5133485;27;20442;-74
2021/10/23 10:58:19;;;;;;;4.33;1.70;;;;;;;;;;5112839;28;20443;-72
2021/10/23 11:01:14;;;;;;;7.47;3.70;;;;;;;;;;5124184;28;20438;-72
2021/10/23 11:03:46;;;;;;;5.17;3.00;;;;;;;;;;5114967;28;20723;-72
2021/10/23 11:06:35;;;;;;;4.80;2.00;;;;;;;;;;5111984;28;20470;-75
2021/10/23 11:09:29;;;;;;;4.80;2.03;;;;;;;;;;5121582;27;20488;-72
2021/10/23 11:12:28;;;;;;;4.10;2.10;;;;;;;;;;5131273;28;20560;-72
2021/10/23 11:14:59;;;;;;;9.20;2.77;;;;;;;;;;5120535;28;20449;-73
2021/10/23 11:17:29;;;;;;;6.90;2.10;;;;;;;;;;5131591;28;20465;-72
2021/10/23 11:20:07;;;;;;;3.67;2.23;;;;;;;;;;5122375;27;20540;-74
2021/10/23 11:22:35;;;;;;;3.33;1.23;;;;;;;;;;5129856;27;20462;-73
2021/10/23 11:25:10;;;;;;;6.03;2.37;;;;;;;;;;5118001;27;20876;-73
2021/10/23 11:27:43;;;;;;;5.73;1.97;;;;;;;;;;5129512;27;20458;-73
2021/10/23 11:30:20;;;;;;;8.40;2.30;;;;;;;;;;5127516;28;20868;-73
2021/10/23 11:32:56;;;;;;;6.93;1.80;;;;;;;;;;5117497;28;20450;-72
2021/10/23 11:35:31;;;;;;;3.87;1.40;;;;;;;;;;5123740;27;20454;-72
2021/10/23 11:38:11;;;;;;;6.53;2.53;;;;;;;;;;5123008;28;20515;-73
2021/10/23 11:40:40;;;;;;;8.07;1.80;;;;;;;;;;5121915;28;20534;-73
2021/10/23 11:43:20;;;;;;;11.27;2.73;;;;;;;;;;5128721;28;20461;-73
2021/10/23 11:45:53;;;;;;;7.80;1.90;;;;;;;;;;5116555;28;20484;-74
2021/10/23 11:48:34;;;;;;;5.43;1.60;;;;;;;;;;5115873;27;20538;-74
2021/10/23 11:51:02;;;;;;;5.97;2.50;;;;;;;;;;5133916;27;20446;-73
2021/10/23 11:53:44;;;;;;;4.50;2.30;;;;;;;;;;5146840;27;20902;-74
2021/10/23 11:56:24;;;;;;;2.57;1.87;;;;;;;;;;5119605;27;20451;-75
2021/10/23 11:58:58;;;;;;;7.47;3.07;;;;;;;;;;5113122;28;20478;-73
2021/10/23 12:01:30;;;;;;;3.60;1.67;;;;;;;;;;5102465;28;20551;-73
2021/10/23 12:04:07;;;;;;;7.00;2.03;;;;;;;;;;5107569;28;20478;-73
2021/10/23 12:06:40;;;;;;;8.93;2.10;;;;;;;;;;5097948;28;20540;-74
2021/10/23 12:09:20;;;;;;;5.70;2.33;;;;;;;;;;5097809;28;20479;-73
2021/10/23 12:11:57;;;;;;;1.80;1.20;;;;;;;;;;5099646;28;20458;-74
2021/10/23 12:14:25;;;;;;;3.53;1.87;;;;;;;;;;5109886;28;20454;-73
2021/10/23 12:16:57;;;;;;;8.50;2.03;;;;;;;;;;5116318;28;20454;-74
2021/10/23 12:19:37;;;;;;;3.97;1.80;;;;;;;;;;5116270;28;20451;-73
2021/10/23 12:22:10;;;;;;;4.13;1.50;;;;;;;;;;5100744;28;20444;-75
2021/10/23 12:24:40;;;;;;;6.03;1.70;;;;;;;;;;5103681;28;20840;-74
2021/10/23 12:27:42;;;;;;;6.30;2.23;;;;;;;;;;5116450;28;20949;-74
2021/10/23 12:30:24;;;;;;;6.20;2.80;;;;;;;;;;5119195;28;20482;-75
2021/10/23 12:33:02;;;;;;;6.43;2.10;;;;;;;;;;5117642;28;20490;-74
2021/10/23 12:35:34;;;;;;;3.53;1.80;;;;;;;;;;5118664;28;20521;-74
2021/10/23 12:38:11;;;;;;;5.70;3.00;;;;;;;;;;5108778;28;20459;-73
2021/10/23 12:40:41;;;;;;;6.30;1.73;;;;;;;;;;5103368;28;20540;-74
2021/10/23 12:43:22;;;;;;;7.67;2.13;;;;;;;;;;5098408;28;20451;-75
2021/10/23 12:46:00;;;;;;;3.70;1.80;;;;;;;;;;5098024;28;20439;-74
2021/10/23 12:48:31;;;;;;;4.10;1.97;;;;;;;;;;5104304;28;20741;-72
2021/10/23 12:50:59;;;;;;;4.07;2.03;;;;;;;;;;5117535;28;20482;-74
2021/10/23 12:53:31;;;;;;;4.17;2.00;;;;;;;;;;5118294;27;20460;-74
2021/10/23 12:56:05;;;;;;;4.77;2.17;;;;;;;;;;5104219;28;20889;-73
2021/10/23 12:58:41;;;;;;;2.40;1.60;;;;;;;;;;5099051;28;20481;-73
2021/10/23 13:01:08;;;;;;;4.53;1.60;;;;;;;;;;5096246;28;20446;-74
2021/10/23 13:03:51;;;;;;;5.07;2.10;;;;;;;;;;5097656;28;20454;-74
2021/10/23 13:06:21;;;;;;;5.00;1.70;;;;;;;;;;5100168;28;20781;-72
2021/10/23 13:08:52;;;;;;;2.83;1.57;;;;;;;;;;5096591;28;20447;-72
2021/10/23 13:21:07;;;;;;;3.87;2.00;;;;;;;;;;5017896;28;20798;-72
2021/10/23 13:29:47;;;;;;;4.40;2.00;;;;;;;;;;5111781;28;20527;-74
2021/10/23 13:32:32;;;;;;;3.90;1.63;;;;;;;;;;5098352;28;20451;-73
2021/10/23 13:35:11;;;;;;;2.50;1.03;;;;;;;;;;5113748;28;20457;-72
2021/10/23 13:37:44;;;;;;;4.00;1.23;;;;;;;;;;5117050;28;20466;-72
2021/10/23 13:40:17;;;;;;;7.17;1.60;;;;;;;;;;5117426;28;20501;-72
2021/10/23 13:42:49;;;;;;;5.40;2.53;;;;;;;;;;5116070;28;20919;-72
2021/10/23 13:45:21;;;;;;;3.90;2.00;;;;;;;;;;5116064;28;20462;-72
2021/10/23 13:51:18;;;;;;;7.37;1.60;;;;;;;;;;5106943;28;20554;-73
2021/10/23 13:53:59;;;;;;;5.87;2.17;;;;;;;;;;5116145;28;20463;-73
2021/10/23 13:56:28;;;;;;;3.57;1.67;;;;;;;;;;5114023;28;20450;-73
2021/10/23 13:58:58;;;;;;;4.07;1.67;;;;;;;;;;5115426;28;20884;-73
2021/10/23 14:01:42;;;;;;;4.70;1.70;;;;;;;;;;5117693;28;20462;-74
2021/10/23 14:04:16;;;;;;;6.47;2.23;;;;;;;;;;5115293;28;21158;-73
2021/10/23 14:09:37;;;;;;;8.60;2.03;;;;;;;;;;5115233;28;20490;-74
2021/10/23 14:12:09;;;;;;;4.50;1.47;;;;;;;;;;5099886;28;20883;-74
2021/10/23 14:14:47;;;;;;;6.60;2.70;;;;;;;;;;5104672;28;20466;-72
2021/10/23 14:20:32;;;;;;;4.40;1.90;;;;;;;;;;5108025;28;20877;-72
2021/10/23 14:23:08;;;;;;;6.27;1.93;;;;;;;;;;5104712;28;20489;-74
2021/10/23 14:25:43;;;;;;;5.27;1.90;;;;;;;;;;5101006;28;20469;-72
2021/10/23 14:28:39;;;;;;;3.80;1.30;;;;;;;;;;5115084;28;20450;-74
2021/10/23 14:31:04;;;;;;;4.50;1.90;;;;;;;;;;5116015;28;20537;-73
2021/10/23 14:33:35;;;;;;;4.63;1.47;;;;;;;;;;5114801;28;20434;-73
2021/10/23 14:36:04;;;;;;;5.53;1.50;;;;;;;;;;5115079;28;20893;-73
2021/10/23 14:38:53;;;;;;;4.43;0.83;;;;;;;;;;5116132;28;20620;-73
2021/10/23 14:41:26;;;;;;;5.87;1.53;;;;;;;;;;5104546;28;20505;-73
2021/10/23 14:44:04;;;;;;;3.30;1.43;;;;;;;;;;5110206;28;20459;-74
2021/10/23 14:46:33;;;;;;;2.17;1.40;;;;;;;;;;5103794;28;20446;-73
2021/10/23 14:49:02;;;;;;;3.83;1.20;;;;;;;;;;5104598;28;20476;-74
2021/10/23 14:51:32;;;;;;;5.20;1.50;;;;;;;;;;5103691;28;20557;-71
2021/10/23 14:54:03;;;;;;;9.33;2.23;;;;;;;;;;5116529;28;20867;-72
2021/10/23 14:56:57;;;;;;;4.73;1.93;;;;;;;;;;5115182;28;20890;-72
2021/10/23 14:59:25;;;;;;;9.00;1.50;;;;;;;;;;5115064;28;20443;-71
2021/10/23 15:02:04;;;;;;;6.63;1.47;;;;;;;;;;5114499;28;20841;-72
2021/10/23 15:04:41;;;;;;;4.33;1.40;;;;;;;;;;5115267;28;20470;-72
2021/10/23 15:07:20;;;;;;;6.93;1.07;;;;;;;;;;5112503;28;20454;-74
2021/10/23 15:09:51;;;;;;;3.80;1.60;;;;;;;;;;5114247;28;20454;-73
2021/10/23 15:12:24;;;;;;;7.50;2.73;;;;;;;;;;5114838;28;20443;-73
2021/10/23 15:14:56;;;;;;;5.33;1.50;;;;;;;;;;5115993;28;20455;-73
2021/10/23 15:17:31;;;;;;;9.20;1.70;;;;;;;;;;5114462;28;20454;-73
2021/10/23 15:20:03;;;;;;;4.93;1.53;;;;;;;;;;5110490;28;20451;-73
2021/10/23 15:22:33;;;;;;;3.30;1.10;;;;;;;;;;5094569;28;20500;-73
2021/10/23 15:25:25;;;;;;;5.40;1.60;;;;;;;;;;5099508;28;20460;-74
2021/10/23 15:28:05;;;;;;;5.57;1.60;;;;;;;;;;5095473;28;20854;-73
2021/10/23 15:31:01;;;;;;;;;;;;;;;;;;;;;
2021/10/23 15:33:41;;;;;;;9.73;3.63;;;;;;;;;;5094182;28;20470;-73